Gratiot, Wisconsin
Current Conditions -  °F | °C
As of 12:55 PM on Sunday 23 Nov 2014 (Local Time) from KEFT Reporting Station
Heavy Rain Heavy Rain  
Wind Chill:   Ceiling: 300
Heat Index:   Visibility: 1mi
Dew Point:   Wind: 9mph
Humidity: 93%   Direction: 160°SSE
Pressure: 29.5"   Gusts: NA
Location:  42.58°N, 90.02°W
Report Text: KEFT 231855Z AUTO 16008KT 1SM +RA OVC003 08/07 A2950 RMK AO2 P0023
Loading
Personal Weather Stations






























Interactive Weather Map New forecast layout! Learn more

10-Day Weather Forecast

Advertisements
Track Severe Weather on mobile